sensor_id;sensor_type;location;lat;lon;timestamp;pressure;altitude;pressure_sealevel;temperature;humidity
57376;BME280;44805;45.048;5.062;2023-04-06T00:02:17;100053.59;;;6.17;52.75
57376;BME280;44805;45.048;5.062;2023-04-06T00:04:42;100065.25;;;6.13;53.23
57376;BME280;44805;45.048;5.062;2023-04-06T00:07:07;100052.09;;;6.02;53.41
57376;BME280;44805;45.048;5.062;2023-04-06T00:09:33;100052.69;;;6.05;53.88
57376;BME280;44805;45.048;5.062;2023-04-06T00:11:58;100051.22;;;6.14;54.23
57376;BME280;44805;45.048;5.062;2023-04-06T00:14:23;100054.31;;;6.19;54.62
57376;BME280;44805;45.048;5.062;2023-04-06T00:16:48;100056.28;;;5.92;54.86
57376;BME280;44805;45.048;5.062;2023-04-06T00:19:14;100052.03;;;5.91;54.50
57376;BME280;44805;45.048;5.062;2023-04-06T00:21:39;100061.34;;;5.82;55.53
57376;BME280;44805;45.048;5.062;2023-04-06T00:24:04;100053.38;;;5.96;55.12
57376;BME280;44805;45.048;5.062;2023-04-06T00:26:30;100052.34;;;5.86;57.89
57376;BME280;44805;45.048;5.062;2023-04-06T00:28:55;100053.63;;;5.80;58.60
57376;BME280;44805;45.048;5.062;2023-04-06T00:31:20;100044.19;;;5.91;58.28
57376;BME280;44805;45.048;5.062;2023-04-06T00:33:47;100055.28;;;5.81;59.47
57376;BME280;44805;45.048;5.062;2023-04-06T00:36:12;100053.13;;;5.75;60.35
57376;BME280;44805;45.048;5.062;2023-04-06T00:38:38;100058.13;;;5.78;59.63
57376;BME280;44805;45.048;5.062;2023-04-06T00:41:03;100054.88;;;5.75;59.53
57376;BME280;44805;45.048;5.062;2023-04-06T00:43:28;100052.28;;;5.75;59.35
57376;BME280;44805;45.048;5.062;2023-04-06T00:45:54;100047.25;;;5.48;59.82
57376;BME280;44805;45.048;5.062;2023-04-06T00:48:20;100062.94;;;5.35;60.09
57376;BME280;44805;45.048;5.062;2023-04-06T00:50:45;100054.19;;;5.23;60.95
57376;BME280;44805;45.048;5.062;2023-04-06T00:53:10;100060.56;;;5.32;60.06
57376;BME280;44805;45.048;5.062;2023-04-06T00:55:36;100064.03;;;5.07;61.00
57376;BME280;44805;45.048;5.062;2023-04-06T00:58:01;100060.25;;;4.72;62.05
57376;BME280;44805;45.048;5.062;2023-04-06T01:00:27;100052.84;;;4.66;61.75
57376;BME280;44805;45.048;5.062;2023-04-06T01:02:52;100044.81;;;4.69;61.71
57376;BME280;44805;45.048;5.062;2023-04-06T01:05:17;100043.03;;;4.83;61.96
57376;BME280;44805;45.048;5.062;2023-04-06T01:07:43;100044.81;;;5.08;60.52
57376;BME280;44805;45.048;5.062;2023-04-06T01:10:08;100046.69;;;4.93;62.08
57376;BME280;44805;45.048;5.062;2023-04-06T01:12:34;100038.63;;;4.96;61.88
57376;BME280;44805;45.048;5.062;2023-04-06T01:15:00;100030.63;;;4.86;62.40
57376;BME280;44805;45.048;5.062;2023-04-06T01:17:25;100029.38;;;4.79;61.61
57376;BME280;44805;45.048;5.062;2023-04-06T01:19:50;100033.13;;;4.88;61.75
57376;BME280;44805;45.048;5.062;2023-04-06T01:22:18;100032.50;;;4.84;61.52
57376;BME280;44805;45.048;5.062;2023-04-06T01:24:44;100030.81;;;4.70;62.89
57376;BME280;44805;45.048;5.062;2023-04-06T01:27:10;100023.84;;;4.84;62.50
57376;BME280;44805;45.048;5.062;2023-04-06T01:29:35;100026.75;;;4.92;61.99
57376;BME280;44805;45.048;5.062;2023-04-06T01:32:01;100023.00;;;4.83;61.74
57376;BME280;44805;45.048;5.062;2023-04-06T01:34:26;100023.00;;;4.83;62.15
57376;BME280;44805;45.048;5.062;2023-04-06T01:36:51;100018.72;;;4.82;62.34
57376;BME280;44805;45.048;5.062;2023-04-06T01:39:17;100022.16;;;4.70;63.06
57376;BME280;44805;45.048;5.062;2023-04-06T01:41:42;100031.34;;;4.75;62.20
57376;BME280;44805;45.048;5.062;2023-04-06T01:44:07;100029.38;;;4.66;63.04
57376;BME280;44805;45.048;5.062;2023-04-06T01:46:33;100029.59;;;4.63;63.23
57376;BME280;44805;45.048;5.062;2023-04-06T01:48:58;100022.69;;;4.62;63.02
57376;BME280;44805;45.048;5.062;2023-04-06T01:51:23;100023.41;;;4.64;63.11
57376;BME280;44805;45.048;5.062;2023-04-06T01:53:50;100027.28;;;4.71;63.04
57376;BME280;44805;45.048;5.062;2023-04-06T01:56:15;100039.38;;;4.85;62.30
57376;BME280;44805;45.048;5.062;2023-04-06T01:58:40;100028.94;;;4.60;63.09
57376;BME280;44805;45.048;5.062;2023-04-06T02:01:05;100032.03;;;4.39;63.36
57376;BME280;44805;45.048;5.062;2023-04-06T02:03:31;100030.91;;;4.30;62.99
57376;BME280;44805;45.048;5.062;2023-04-06T02:05:56;100024.28;;;4.25;63.82
57376;BME280;44805;45.048;5.062;2023-04-06T02:08:21;100028.97;;;4.20;64.43
57376;BME280;44805;45.048;5.062;2023-04-06T02:10:47;100027.84;;;4.24;63.63
57376;BME280;44805;45.048;5.062;2023-04-06T02:13:12;100034.31;;;4.31;64.42
57376;BME280;44805;45.048;5.062;2023-04-06T02:15:37;100032.25;;;4.36;64.62
57376;BME280;44805;45.048;5.062;2023-04-06T02:18:03;100022.16;;;4.44;63.59
57376;BME280;44805;45.048;5.062;2023-04-06T02:20:28;100013.50;;;4.44;64.12
57376;BME280;44805;45.048;5.062;2023-04-06T02:22:53;100016.31;;;4.53;64.12
57376;BME280;44805;45.048;5.062;2023-04-06T02:25:19;100013.19;;;4.48;63.26
57376;BME280;44805;45.048;5.062;2023-04-06T02:27:44;100017.44;;;4.37;64.06
57376;BME280;44805;45.048;5.062;2023-04-06T02:30:10;100012.31;;;4.35;64.02
57376;BME280;44805;45.048;5.062;2023-04-06T02:32:35;100011.59;;;4.33;64.94
57376;BME280;44805;45.048;5.062;2023-04-06T02:35:00;100013.53;;;4.17;64.37
57376;BME280;44805;45.048;5.062;2023-04-06T02:37:26;100012.41;;;4.21;64.53
57376;BME280;44805;45.048;5.062;2023-04-06T02:39:51;100008.84;;;4.09;65.88
57376;BME280;44805;45.048;5.062;2023-04-06T02:42:16;99994.25;;;4.19;65.83
57376;BME280;44805;45.048;5.062;2023-04-06T02:44:42;100004.13;;;4.01;66.98
57376;BME280;44805;45.048;5.062;2023-04-06T02:47:07;100000.47;;;4.04;66.68
57376;BME280;44805;45.048;5.062;2023-04-06T02:49:33;100005.06;;;4.00;65.81
57376;BME280;44805;45.048;5.062;2023-04-06T02:51:58;99997.59;;;4.08;66.58
57376;BME280;44805;45.048;5.062;2023-04-06T02:54:23;99995.72;;;4.10;65.71
57376;BME280;44805;45.048;5.062;2023-04-06T02:56:49;100003.38;;;3.99;66.30
57376;BME280;44805;45.048;5.062;2023-04-06T02:59:14;100004.25;;;4.00;66.71
57376;BME280;44805;45.048;5.062;2023-04-06T03:01:40;100001.19;;;3.93;66.68
57376;BME280;44805;45.048;5.062;2023-04-06T03:04:05;99994.84;;;3.97;65.98
57376;BME280;44805;45.048;5.062;2023-04-06T03:06:30;99991.34;;;3.84;67.29
57376;BME280;44805;45.048;5.062;2023-04-06T03:08:56;100002.25;;;4.03;67.10
57376;BME280;44805;45.048;5.062;2023-04-06T03:11:21;99993.31;;;4.07;66.84
57376;BME280;44805;45.048;5.062;2023-04-06T03:13:47;99998.72;;;4.04;65.95
57376;BME280;44805;45.048;5.062;2023-04-06T03:16:12;99999.31;;;3.95;65.79
57376;BME280;44805;45.048;5.062;2023-04-06T03:18:37;99992.84;;;3.88;67.49
57376;BME280;44805;45.048;5.062;2023-04-06T03:21:02;99994.13;;;3.68;66.77
57376;BME280;44805;45.048;5.062;2023-04-06T03:23:28;100004.69;;;3.52;67.96
57376;BME280;44805;45.048;5.062;2023-04-06T03:25:53;99993.22;;;3.55;67.48
57376;BME280;44805;45.048;5.062;2023-04-06T03:28:18;99996.63;;;3.69;67.07
57376;BME280;44805;45.048;5.062;2023-04-06T03:30:44;100007.28;;;3.52;68.20
57376;BME280;44805;45.048;5.062;2023-04-06T03:33:10;100005.63;;;3.51;66.65
57376;BME280;44805;45.048;5.062;2023-04-06T03:35:35;100010.66;;;3.40;67.21
57376;BME280;44805;45.048;5.062;2023-04-06T03:38:02;100009.91;;;3.38;67.12
57376;BME280;44805;45.048;5.062;2023-04-06T03:40:27;100010.66;;;3.40;67.37
57376;BME280;44805;45.048;5.062;2023-04-06T03:42:52;100016.06;;;3.37;68.07
57376;BME280;44805;45.048;5.062;2023-04-06T03:45:17;100011.13;;;3.46;68.09
57376;BME280;44805;45.048;5.062;2023-04-06T03:47:43;100012.50;;;3.38;68.71
57376;BME280;44805;45.048;5.062;2023-04-06T03:50:08;100003.25;;;3.34;70.18
57376;BME280;44805;45.048;5.062;2023-04-06T03:52:34;100007.50;;;3.35;70.68
57376;BME280;44805;45.048;5.062;2023-04-06T03:55:00;100007.31;;;3.38;70.46
57376;BME280;44805;45.048;5.062;2023-04-06T03:57:25;100004.88;;;3.49;69.57
57376;BME280;44805;45.048;5.062;2023-04-06T03:59:51;100004.31;;;3.71;68.95
57376;BME280;44805;45.048;5.062;2023-04-06T04:02:16;100003.06;;;3.64;68.42
57376;BME280;44805;45.048;5.062;2023-04-06T04:04:41;100000.75;;;3.59;69.34
57376;BME280;44805;45.048;5.062;2023-04-06T04:07:06;100007.34;;;3.23;70.81
57376;BME280;44805;45.048;5.062;2023-04-06T04:09:32;100012.56;;;3.51;69.82
57376;BME280;44805;45.048;5.062;2023-04-06T04:11:57;100005.16;;;3.44;69.89
57376;BME280;44805;45.048;5.062;2023-04-06T04:14:22;100008.38;;;3.62;68.33
57376;BME280;44805;45.048;5.062;2023-04-06T04:16:48;100005.97;;;3.59;69.33
57376;BME280;44805;45.048;5.062;2023-04-06T04:19:13;100003.16;;;3.62;68.79
57376;BME280;44805;45.048;5.062;2023-04-06T04:21:45;100009.31;;;3.61;69.28
57376;BME280;44805;45.048;5.062;2023-04-06T04:24:10;100019.53;;;3.64;68.39
57376;BME280;44805;45.048;5.062;2023-04-06T04:26:36;100019.13;;;3.70;67.92
57376;BME280;44805;45.048;5.062;2023-04-06T04:29:02;100019.91;;;3.58;68.76
57376;BME280;44805;45.048;5.062;2023-04-06T04:31:27;100018.50;;;3.67;68.85
57376;BME280;44805;45.048;5.062;2023-04-06T04:33:53;100023.44;;;3.57;68.62
57376;BME280;44805;45.048;5.062;2023-04-06T04:36:18;100015.78;;;3.27;69.24
57376;BME280;44805;45.048;5.062;2023-04-06T04:38:43;100017.63;;;3.25;69.79
57376;BME280;44805;45.048;5.062;2023-04-06T04:41:08;100018.78;;;3.21;70.57
57376;BME280;44805;45.048;5.062;2023-04-06T04:43:34;100023.66;;;3.25;69.34
57376;BME280;44805;45.048;5.062;2023-04-06T04:45:59;100025.72;;;3.20;69.06
57376;BME280;44805;45.048;5.062;2023-04-06T04:48:25;100028.16;;;3.23;70.46
57376;BME280;44805;45.048;5.062;2023-04-06T04:50:51;100022.72;;;3.41;68.83
57376;BME280;44805;45.048;5.062;2023-04-06T04:53:16;100024.84;;;3.48;68.96
57376;BME280;44805;45.048;5.062;2023-04-06T04:55:41;100025.50;;;3.52;68.27
57376;BME280;44805;45.048;5.062;2023-04-06T04:58:07;100038.50;;;3.11;70.51
57376;BME280;44805;45.048;5.062;2023-04-06T05:00:34;100032.25;;;2.99;71.12
57376;BME280;44805;45.048;5.062;2023-04-06T05:02:59;100032.25;;;2.99;71.58
57376;BME280;44805;45.048;5.062;2023-04-06T05:05:25;100031.97;;;2.89;71.49
57376;BME280;44805;45.048;5.062;2023-04-06T05:07:50;100027.38;;;2.64;73.94
57376;BME280;44805;45.048;5.062;2023-04-06T05:10:15;100036.47;;;2.57;73.52
57376;BME280;44805;45.048;5.062;2023-04-06T05:12:40;100039.66;;;2.62;73.21
57376;BME280;44805;45.048;5.062;2023-04-06T05:15:06;100039.75;;;2.60;72.86
57376;BME280;44805;45.048;5.062;2023-04-06T05:17:31;100039.88;;;2.43;73.31
57376;BME280;44805;45.048;5.062;2023-04-06T05:19:57;100042.59;;;2.56;72.94
57376;BME280;44805;45.048;5.062;2023-04-06T05:22:22;100049.41;;;2.87;71.97
57376;BME280;44805;45.048;5.062;2023-04-06T05:24:47;100052.53;;;3.08;70.37
57376;BME280;44805;45.048;5.062;2023-04-06T05:27:13;100047.88;;;3.13;69.29
57376;BME280;44805;45.048;5.062;2023-04-06T05:29:48;100044.69;;;3.37;69.10
57376;BME280;44805;45.048;5.062;2023-04-06T05:32:14;100039.25;;;3.54;68.69
57376;BME280;44805;45.048;5.062;2023-04-06T05:34:43;100039.13;;;3.70;67.61
57376;BME280;44805;45.048;5.062;2023-04-06T05:37:08;100044.69;;;3.78;68.89
57376;BME280;44805;45.048;5.062;2023-04-06T05:39:33;100049.41;;;3.86;67.94
57376;BME280;44805;45.048;5.062;2023-04-06T05:42:01;100047.34;;;3.91;68.52
57376;BME280;44805;45.048;5.062;2023-04-06T05:44:27;100046.56;;;4.03;68.06
57376;BME280;44805;45.048;5.062;2023-04-06T05:46:52;100057.47;;;4.23;67.83
57376;BME280;44805;45.048;5.062;2023-04-06T05:49:17;100058.53;;;4.33;67.78
57376;BME280;44805;45.048;5.062;2023-04-06T05:51:43;100057.59;;;4.34;67.46
57376;BME280;44805;45.048;5.062;2023-04-06T05:54:08;100056.03;;;4.44;66.75
57376;BME280;44805;45.048;5.062;2023-04-06T05:56:33;100054.16;;;4.46;67.35
57376;BME280;44805;45.048;5.062;2023-04-06T05:58:59;100046.66;;;4.54;67.10
57376;BME280;44805;45.048;5.062;2023-04-06T06:01:24;100050.75;;;4.71;66.68
57376;BME280;44805;45.048;5.062;2023-04-06T06:06:46;100059.13;;;4.89;65.75
57376;BME280;44805;45.048;5.062;2023-04-06T06:09:15;100051.81;;;4.94;66.21
57376;BME280;44805;45.048;5.062;2023-04-06T06:11:40;100055.78;;;5.00;66.06
57376;BME280;44805;45.048;5.062;2023-04-06T06:14:06;100059.41;;;5.10;65.51
57376;BME280;44805;45.048;5.062;2023-04-06T06:16:31;100055.75;;;5.13;65.23
57376;BME280;44805;45.048;5.062;2023-04-06T06:18:56;100064.09;;;5.31;64.32
57376;BME280;44805;45.048;5.062;2023-04-06T06:21:22;100060.03;;;5.39;64.04
57376;BME280;44805;45.048;5.062;2023-04-06T06:23:47;100063.13;;;5.44;63.81
57376;BME280;44805;45.048;5.062;2023-04-06T06:26:14;100062.91;;;5.48;63.07
57376;BME280;44805;45.048;5.062;2023-04-06T06:28:39;100058.91;;;5.68;62.92
57376;BME280;44805;45.048;5.062;2023-04-06T06:31:05;100062.63;;;5.76;62.54
57376;BME280;44805;45.048;5.062;2023-04-06T06:33:30;100061.13;;;5.85;62.76
57376;BME280;44805;45.048;5.062;2023-04-06T06:35:55;100071.25;;;5.90;62.09
57376;BME280;44805;45.048;5.062;2023-04-06T06:38:21;100071.47;;;5.86;61.62
57376;BME280;44805;45.048;5.062;2023-04-06T06:40:47;100080.38;;;5.84;62.10
57376;BME280;44805;45.048;5.062;2023-04-06T06:43:12;100075.00;;;6.22;60.80
57376;BME280;44805;45.048;5.062;2023-04-06T06:45:37;100079.59;;;6.43;61.04
57376;BME280;44805;45.048;5.062;2023-04-06T06:48:03;100073.66;;;6.41;60.42
57376;BME280;44805;45.048;5.062;2023-04-06T06:50:28;100072.22;;;6.37;60.68
57376;BME280;44805;45.048;5.062;2023-04-06T06:52:53;100070.13;;;6.53;60.20
57376;BME280;44805;45.048;5.062;2023-04-06T06:55:18;100069.00;;;6.80;58.91
57376;BME280;44805;45.048;5.062;2023-04-06T06:57:44;100064.75;;;6.90;60.11
57376;BME280;44805;45.048;5.062;2023-04-06T07:00:11;100065.91;;;6.86;60.53
57376;BME280;44805;45.048;5.062;2023-04-06T07:02:38;100065.22;;;7.06;61.33
57376;BME280;44805;45.048;5.062;2023-04-06T07:05:03;100072.03;;;6.98;60.95
57376;BME280;44805;45.048;5.062;2023-04-06T07:07:29;100068.78;;;6.83;60.71
57376;BME280;44805;45.048;5.062;2023-04-06T07:09:54;100065.69;;;6.89;61.65
57376;BME280;44805;45.048;5.062;2023-04-06T07:12:20;100069.06;;;7.02;61.10
57376;BME280;44805;45.048;5.062;2023-04-06T07:14:45;100067.50;;;7.11;60.72
57376;BME280;44805;45.048;5.062;2023-04-06T07:17:10;100073.09;;;7.17;59.69
57376;BME280;44805;45.048;5.062;2023-04-06T07:19:36;100071.91;;;7.33;59.49
57376;BME280;44805;45.048;5.062;2023-04-06T07:22:01;100067.13;;;7.49;60.78
57376;BME280;44805;45.048;5.062;2023-04-06T07:24:28;100066.13;;;7.73;58.87
57376;BME280;44805;45.048;5.062;2023-04-06T07:26:53;100068.03;;;7.82;58.12
57376;BME280;44805;45.048;5.062;2023-04-06T07:29:18;100064.69;;;7.91;57.90
57376;BME280;44805;45.048;5.062;2023-04-06T07:31:44;100061.69;;;7.96;57.37
57376;BME280;44805;45.048;5.062;2023-04-06T07:34:11;100071.38;;;8.16;57.32
57376;BME280;44805;45.048;5.062;2023-04-06T07:36:36;100073.34;;;8.35;57.94
57376;BME280;44805;45.048;5.062;2023-04-06T07:39:02;100074.22;;;8.57;56.71
57376;BME280;44805;45.048;5.062;2023-04-06T07:41:27;100079.34;;;8.58;56.98
57376;BME280;44805;45.048;5.062;2023-04-06T07:43:52;100088.72;;;8.08;57.21
57376;BME280;44805;45.048;5.062;2023-04-06T07:46:17;100087.19;;;8.37;57.29
57376;BME280;44805;45.048;5.062;2023-04-06T07:48:43;100090.47;;;8.18;55.12
57376;BME280;44805;45.048;5.062;2023-04-06T07:51:08;100088.53;;;8.20;56.24
57376;BME280;44805;45.048;5.062;2023-04-06T07:53:39;100082.56;;;8.30;56.13
57376;BME280;44805;45.048;5.062;2023-04-06T07:56:04;100086.22;;;8.38;54.62
57376;BME280;44805;45.048;5.062;2023-04-06T07:58:29;100093.03;;;8.62;52.75
57376;BME280;44805;45.048;5.062;2023-04-06T08:00:55;100078.84;;;8.85;53.50
57376;BME280;44805;45.048;5.062;2023-04-06T08:03:25;100089.38;;;8.95;52.87
57376;BME280;44805;45.048;5.062;2023-04-06T08:05:51;100082.69;;;8.81;53.28
57376;BME280;44805;45.048;5.062;2023-04-06T08:08:17;100089.53;;;8.94;53.70
57376;BME280;44805;45.048;5.062;2023-04-06T08:10:42;100085.34;;;8.70;54.84
57376;BME280;44805;45.048;5.062;2023-04-06T08:13:08;100088.69;;;8.72;53.86
57376;BME280;44805;45.048;5.062;2023-04-06T08:15:33;100085.59;;;9.09;55.96
57376;BME280;44805;45.048;5.062;2023-04-06T08:17:58;100094.59;;;9.06;54.59
57376;BME280;44805;45.048;5.062;2023-04-06T08:20:25;100089.34;;;8.85;54.90
57376;BME280;44805;45.048;5.062;2023-04-06T08:22:50;100098.81;;;9.28;54.60
57376;BME280;44805;45.048;5.062;2023-04-06T08:25:16;100094.00;;;9.33;52.19
57376;BME280;44805;45.048;5.062;2023-04-06T08:27:41;100095.31;;;9.18;52.15
57376;BME280;44805;45.048;5.062;2023-04-06T08:30:06;100092.53;;;9.41;53.13
57376;BME280;44805;45.048;5.062;2023-04-06T08:32:32;100098.28;;;9.65;52.59
57376;BME280;44805;45.048;5.062;2023-04-06T08:34:57;100099.06;;;9.56;50.84
57376;BME280;44805;45.048;5.062;2023-04-06T08:37:22;100096.72;;;9.53;50.62
57376;BME280;44805;45.048;5.062;2023-04-06T08:39:48;100098.44;;;9.73;47.54
57376;BME280;44805;45.048;5.062;2023-04-06T08:42:16;100094.50;;;10.08;48.58
57376;BME280;44805;45.048;5.062;2023-04-06T08:44:44;100104.91;;;10.19;48.83
57376;BME280;44805;45.048;5.062;2023-04-06T08:47:10;100101.00;;;10.04;48.99
57376;BME280;44805;45.048;5.062;2023-04-06T08:49:36;100098.56;;;10.32;48.63
57376;BME280;44805;45.048;5.062;2023-04-06T08:52:02;100096.25;;;10.48;49.31
57376;BME280;44805;45.048;5.062;2023-04-06T08:54:28;100099.94;;;10.65;47.65
57376;BME280;44805;45.048;5.062;2023-04-06T08:56:53;100101.75;;;10.74;47.29
57376;BME280;44805;45.048;5.062;2023-04-06T08:59:19;100096.03;;;10.89;47.29
57376;BME280;44805;45.048;5.062;2023-04-06T09:01:44;100095.88;;;11.10;47.40
57376;BME280;44805;45.048;5.062;2023-04-06T09:04:16;100089.94;;;11.35;46.52
57376;BME280;44805;45.048;5.062;2023-04-06T09:06:42;100082.31;;;11.60;44.09
57376;BME280;44805;45.048;5.062;2023-04-06T09:09:07;100089.47;;;11.77;42.81
57376;BME280;44805;45.048;5.062;2023-04-06T09:11:43;100086.38;;;11.82;41.74
57376;BME280;44805;45.048;5.062;2023-04-06T09:14:09;100083.34;;;11.86;41.50
57376;BME280;44805;45.048;5.062;2023-04-06T09:16:41;100078.22;;;12.03;40.57
57376;BME280;44805;45.048;5.062;2023-04-06T09:22:05;100080.56;;;12.06;41.09
57376;BME280;44805;45.048;5.062;2023-04-06T09:25:08;100079.41;;;11.90;40.46
57376;BME280;44805;45.048;5.062;2023-04-06T09:27:32;100074.50;;;11.95;39.56
57376;BME280;44805;45.048;5.062;2023-04-06T09:30:04;100075.13;;;12.43;40.89
57376;BME280;44805;45.048;5.062;2023-04-06T09:32:30;100073.81;;;12.65;40.04
57376;BME280;44805;45.048;5.062;2023-04-06T09:37:42;100076.44;;;12.83;39.55
57376;BME280;44805;45.048;5.062;2023-04-06T09:40:08;100072.28;;;13.07;39.03
57376;BME280;44805;45.048;5.062;2023-04-06T09:42:33;100078.38;;;13.07;37.95
57376;BME280;44805;45.048;5.062;2023-04-06T09:45:00;100073.47;;;12.86;36.20
57376;BME280;44805;45.048;5.062;2023-04-06T09:47:25;100077.75;;;12.61;35.96
57376;BME280;44805;45.048;5.062;2023-04-06T09:49:57;100082.03;;;13.06;36.83
57376;BME280;44805;45.048;5.062;2023-04-06T09:52:26;100079.34;;;12.98;33.38
57376;BME280;44805;45.048;5.062;2023-04-06T09:54:52;100081.34;;;12.78;33.90
57376;BME280;44805;45.048;5.062;2023-04-06T09:58:03;100076.75;;;13.06;34.33
57376;BME280;44805;45.048;5.062;2023-04-06T10:00:09;100072.66;;;12.86;33.00
57376;BME280;44805;45.048;5.062;2023-04-06T10:08:02;100073.31;;;13.40;32.00
57376;BME280;44805;45.048;5.062;2023-04-06T10:10:30;100074.72;;;13.68;32.14
57376;BME280;44805;45.048;5.062;2023-04-06T10:12:55;100059.94;;;14.00;32.83
57376;BME280;44805;45.048;5.062;2023-04-06T10:15:21;100065.09;;;14.10;33.56
57376;BME280;44805;45.048;5.062;2023-04-06T10:17:46;100062.53;;;13.84;31.57
57376;BME280;44805;45.048;5.062;2023-04-06T10:23:05;100058.66;;;14.45;32.19
57376;BME280;44805;45.048;5.062;2023-04-06T10:25:32;100062.66;;;14.58;31.50
57376;BME280;44805;45.048;5.062;2023-04-06T10:30:26;100058.81;;;15.01;30.59
57376;BME280;44805;45.048;5.062;2023-04-06T10:32:52;100044.91;;;15.38;29.41
57376;BME280;44805;45.048;5.062;2023-04-06T10:38:20;100048.56;;;16.08;29.17
57376;BME280;44805;45.048;5.062;2023-04-06T10:40:47;100049.44;;;16.00;27.71
57376;BME280;44805;45.048;5.062;2023-04-06T10:43:18;100050.13;;;16.17;28.31
57376;BME280;44805;45.048;5.062;2023-04-06T10:45:44;100056.25;;;15.95;28.36
57376;BME280;44805;45.048;5.062;2023-04-06T10:48:13;100051.09;;;16.24;28.33
57376;BME280;44805;45.048;5.062;2023-04-06T10:53:42;100047.16;;;16.58;28.05
57376;BME280;44805;45.048;5.062;2023-04-06T10:56:13;100045.88;;;16.54;28.45
57376;BME280;44805;45.048;5.062;2023-04-06T10:58:38;100051.69;;;16.73;27.73
57376;BME280;44805;45.048;5.062;2023-04-06T11:01:08;100042.81;;;16.80;26.66
57376;BME280;44805;45.048;5.062;2023-04-06T11:03:42;100048.44;;;16.62;27.39
57376;BME280;44805;45.048;5.062;2023-04-06T11:06:08;100049.19;;;16.10;27.03
57376;BME280;44805;45.048;5.062;2023-04-06T11:08:33;100048.66;;;15.92;27.34
57376;BME280;44805;45.048;5.062;2023-04-06T11:11:09;100039.88;;;16.14;27.15
57376;BME280;44805;45.048;5.062;2023-04-06T11:13:45;100048.13;;;16.19;26.75
57376;BME280;44805;45.048;5.062;2023-04-06T11:18:46;100038.41;;;16.12;27.88
57376;BME280;44805;45.048;5.062;2023-04-06T11:21:11;100038.56;;;16.10;27.67
57376;BME280;44805;45.048;5.062;2023-04-06T11:23:37;100034.38;;;15.93;27.74
57376;BME280;44805;45.048;5.062;2023-04-06T11:26:02;100037.09;;;16.08;27.18
57376;BME280;44805;45.048;5.062;2023-04-06T11:28:27;100026.28;;;16.09;27.63
57376;BME280;44805;45.048;5.062;2023-04-06T11:30:53;100023.31;;;16.50;27.83
57376;BME280;44805;45.048;5.062;2023-04-06T11:33:21;100028.16;;;16.84;28.33
57376;BME280;44805;45.048;5.062;2023-04-06T11:35:49;100027.63;;;16.66;27.95
57376;BME280;44805;45.048;5.062;2023-04-06T11:38:17;100026.25;;;16.93;28.53
57376;BME280;44805;45.048;5.062;2023-04-06T11:40:42;100022.56;;;16.79;28.14
57376;BME280;44805;45.048;5.062;2023-04-06T11:43:10;100028.97;;;16.47;28.52
57376;BME280;44805;45.048;5.062;2023-04-06T11:45:40;100018.56;;;16.60;29.30
57376;BME280;44805;45.048;5.062;2023-04-06T11:48:06;100008.38;;;16.87;28.31
57376;BME280;44805;45.048;5.062;2023-04-06T11:53:30;100009.09;;;17.10;27.98
57376;BME280;44805;45.048;5.062;2023-04-06T11:55:55;100014.19;;;17.27;28.12
57376;BME280;44805;45.048;5.062;2023-04-06T11:58:21;100002.84;;;17.33;28.13
57376;BME280;44805;45.048;5.062;2023-04-06T12:00:46;100004.97;;;17.08;27.52
57376;BME280;44805;45.048;5.062;2023-04-06T12:03:12;100000.19;;;17.18;26.60
57376;BME280;44805;45.048;5.062;2023-04-06T12:05:37;100002.09;;;17.24;27.26
57376;BME280;44805;45.048;5.062;2023-04-06T12:08:03;99997.47;;;16.74;25.84
57376;BME280;44805;45.048;5.062;2023-04-06T12:10:28;99990.16;;;16.76;25.77
57376;BME280;44805;45.048;5.062;2023-04-06T12:12:53;99983.56;;;16.71;24.96
57376;BME280;44805;45.048;5.062;2023-04-06T12:15:19;99985.22;;;16.73;25.41
57376;BME280;44805;45.048;5.062;2023-04-06T12:17:44;99989.16;;;17.36;25.03
57376;BME280;44805;45.048;5.062;2023-04-06T12:20:10;99982.91;;;17.80;24.69
57376;BME280;44805;45.048;5.062;2023-04-06T12:22:35;99983.28;;;17.98;23.96
57376;BME280;44805;45.048;5.062;2023-04-06T12:25:01;99975.53;;;18.04;23.83
57376;BME280;44805;45.048;5.062;2023-04-06T12:27:26;99979.81;;;17.62;24.45
57376;BME280;44805;45.048;5.062;2023-04-06T12:29:52;99972.31;;;17.87;25.30
57376;BME280;44805;45.048;5.062;2023-04-06T12:32:17;99978.09;;;17.90;22.96
57376;BME280;44805;45.048;5.062;2023-04-06T12:34:42;99966.47;;;18.19;22.51
57376;BME280;44805;45.048;5.062;2023-04-06T12:37:08;99962.84;;;18.27;22.00
57376;BME280;44805;45.048;5.062;2023-04-06T12:39:33;99958.50;;;18.26;22.61
57376;BME280;44805;45.048;5.062;2023-04-06T12:41:58;99959.94;;;18.22;22.72
57376;BME280;44805;45.048;5.062;2023-04-06T12:44:23;99956.13;;;18.10;23.54
57376;BME280;44805;45.048;5.062;2023-04-06T12:46:49;99952.75;;;18.01;24.70
57376;BME280;44805;45.048;5.062;2023-04-06T12:49:15;99945.16;;;18.19;24.16
57376;BME280;44805;45.048;5.062;2023-04-06T12:51:42;99943.56;;;18.25;22.09
57376;BME280;44805;45.048;5.062;2023-04-06T12:54:07;99949.28;;;18.00;23.40
57376;BME280;44805;45.048;5.062;2023-04-06T12:56:33;99944.28;;;17.91;22.41
57376;BME280;44805;45.048;5.062;2023-04-06T12:58:58;99949.09;;;17.81;23.09
57376;BME280;44805;45.048;5.062;2023-04-06T13:01:23;99946.94;;;18.12;23.62
57376;BME280;44805;45.048;5.062;2023-04-06T13:03:50;99946.59;;;17.79;22.52
57376;BME280;44805;45.048;5.062;2023-04-06T13:06:15;99942.41;;;18.34;23.54
57376;BME280;44805;45.048;5.062;2023-04-06T13:08:40;99950.03;;;18.16;23.03
57376;BME280;44805;45.048;5.062;2023-04-06T13:11:08;99943.81;;;18.09;22.77
57376;BME280;44805;45.048;5.062;2023-04-06T13:13:33;99944.41;;;17.83;23.06
57376;BME280;44805;45.048;5.062;2023-04-06T13:16:00;99941.44;;;17.92;23.17
57376;BME280;44805;45.048;5.062;2023-04-06T13:18:29;99945.06;;;17.70;22.56
57376;BME280;44805;45.048;5.062;2023-04-06T13:20:55;99953.63;;;17.65;21.21
57376;BME280;44805;45.048;5.062;2023-04-06T13:23:21;99944.19;;;18.06;21.72